Time;durP1;ratioP1;P1;durP2;ratioP2;P2;SDS_P1;SDS_P2;PMS_P1;PMS_P2;Temp;Humidity;BMP_temperature;BMP_pressure;BME280_temperature;BME280_humidity;BME280_pressure;Samples;Min_cycle;Max_cycle;Signal;HPM_P1;HPM_P2
2024/01/04 00:00:36;;;;;;;1.27;0.90;;;;;;;8.55;100.00;98587.44;5058873;28;20274;-72
2024/01/04 00:03:02;;;;;;;1.30;0.73;;;;;;;8.57;100.00;98587.09;5060299;28;20199;-73
2024/01/04 00:05:28;;;;;;;2.23;0.83;;;;;;;8.59;100.00;98585.63;5061316;28;20260;-72
2024/01/04 00:07:55;;;;;;;0.73;0.50;;;;;;;8.62;100.00;98592.03;5059727;28;20198;-73
2024/01/04 00:10:21;;;;;;;2.27;0.80;;;;;;;8.64;100.00;98590.56;5050843;28;20218;-73
2024/01/04 00:12:51;;;;;;;1.50;0.60;;;;;;;8.64;100.00;98587.94;5059207;28;20451;-73
2024/01/04 00:15:18;;;;;;;0.77;0.70;;;;;;;8.66;100.00;98585.72;5060605;28;20222;-73
2024/01/04 00:17:44;;;;;;;0.77;0.50;;;;;;;8.66;100.00;98595.47;5057797;28;20209;-73
2024/01/04 00:20:11;;;;;;;3.40;0.70;;;;;;;8.68;100.00;98580.84;5060851;28;20201;-73
2024/01/04 00:22:38;;;;;;;2.00;0.60;;;;;;;8.67;100.00;98581.97;5062668;28;20199;-72
2024/01/04 00:25:05;;;;;;;0.60;0.50;;;;;;;8.70;100.00;98594.38;5061421;28;20268;-73
2024/01/04 00:27:32;;;;;;;0.87;0.80;;;;;;;8.70;100.00;98591.75;5054482;28;20960;-73
2024/01/04 00:29:59;;;;;;;2.27;1.07;;;;;;;8.71;100.00;98592.50;5059621;28;20223;-72
2024/01/04 00:32:26;;;;;;;3.13;0.60;;;;;;;8.71;100.00;98590.66;5061418;28;20214;-73
2024/01/04 00:34:53;;;;;;;1.90;0.80;;;;;;;8.74;100.00;98591.78;5080720;28;20223;-72
2024/01/04 00:37:19;;;;;;;1.90;0.80;;;;;;;8.73;100.00;98590.25;5072352;28;20207;-72
2024/01/04 00:39:45;;;;;;;1.37;0.70;;;;;;;8.75;100.00;98598.56;5076922;28;20196;-72
2024/01/04 00:42:12;;;;;;;0.97;0.90;;;;;;;8.75;100.00;98596.69;5071443;28;20201;-73
2024/01/04 00:44:38;;;;;;;1.10;0.80;;;;;;;8.76;100.00;98592.94;5072453;28;20923;-73
2024/01/04 00:47:06;;;;;;;1.10;0.90;;;;;;;8.77;100.00;98596.31;5072002;28;20262;-72
2024/01/04 00:49:32;;;;;;;1.13;0.83;;;;;;;8.77;100.00;98599.72;5073140;28;20231;-73
2024/01/04 00:51:59;;;;;;;1.77;0.90;;;;;;;8.77;100.00;98601.59;5075343;28;20266;-71
2024/01/04 00:54:26;;;;;;;0.70;0.70;;;;;;;8.78;100.00;98600.47;5071139;28;20278;-73
2024/01/04 00:56:53;;;;;;;0.73;0.70;;;;;;;8.77;100.00;98612.88;5070721;28;20207;-73
2024/01/04 00:59:19;;;;;;;1.40;0.60;;;;;;;8.78;100.00;98608.38;5072782;28;20210;-72
2024/01/04 01:01:45;;;;;;;0.70;0.60;;;;;;;8.75;100.00;98606.47;5074767;28;20182;-72
2024/01/04 01:04:13;;;;;;;0.80;0.70;;;;;;;8.73;100.00;98606.81;5077402;28;20295;-72
2024/01/04 01:06:39;;;;;;;0.70;0.60;;;;;;;8.70;100.00;98609.44;5072567;28;20617;-73
2024/01/04 01:09:06;;;;;;;3.13;0.83;;;;;;;8.67;100.00;98615.38;5069758;28;20265;-72
2024/01/04 01:11:32;;;;;;;1.00;0.80;;;;;;;8.65;100.00;98612.38;5057771;28;20214;-73
2024/01/04 01:13:59;;;;;;;2.10;0.80;;;;;;;8.65;100.00;98615.00;5058933;28;20238;-73
2024/01/04 01:16:26;;;;;;;0.77;0.50;;;;;;;8.63;100.00;98609.31;5057173;28;20241;-73
2024/01/04 01:18:52;;;;;;;0.57;0.57;;;;;;;8.63;100.00;98619.84;5054334;28;20289;-72
2024/01/04 01:21:20;;;;;;;1.57;1.00;;;;;;;8.61;100.00;98622.09;5057214;28;20210;-73
2024/01/04 01:23:46;;;;;;;0.77;0.47;;;;;;;8.59;100.00;98632.22;5053111;28;20210;-73
2024/01/04 01:26:12;;;;;;;0.57;0.50;;;;;;;8.55;100.00;98624.28;5070160;28;20202;-74
2024/01/04 01:28:39;;;;;;;1.97;0.70;;;;;;;8.56;100.00;98631.06;5056174;28;20194;-73
2024/01/04 01:31:05;;;;;;;1.00;0.60;;;;;;;8.54;100.00;98630.66;5054117;28;20199;-74
2024/01/04 01:33:32;;;;;;;0.70;0.70;;;;;;;8.50;100.00;98632.47;5054513;28;20246;-73
2024/01/04 01:36:01;;;;;;;0.50;0.50;;;;;;;8.50;100.00;98637.00;5074394;28;20212;-73
2024/01/04 01:38:29;;;;;;;1.03;0.60;;;;;;;8.46;100.00;98628.31;5057656;28;20214;-73
2024/01/04 01:40:55;;;;;;;1.40;0.60;;;;;;;8.44;100.00;98636.53;5051075;28;20198;-73
2024/01/04 01:43:22;;;;;;;0.57;0.43;;;;;;;8.39;100.00;98628.97;5056977;28;20253;-73
2024/01/04 01:45:48;;;;;;;0.57;0.57;;;;;;;8.38;100.00;98630.09;5077342;28;20222;-73
2024/01/04 01:48:15;;;;;;;0.90;0.70;;;;;;;8.34;100.00;98631.91;5061353;28;20282;-74
2024/01/04 01:50:41;;;;;;;1.70;0.63;;;;;;;8.31;100.00;98630.00;5057721;28;20700;-73
2024/01/04 01:53:08;;;;;;;0.40;0.40;;;;;;;8.28;100.00;98632.59;5054947;28;20214;-73
2024/01/04 01:55:36;;;;;;;0.40;0.40;;;;;;;8.23;100.00;98638.16;5056717;28;20214;-73
2024/01/04 01:58:03;;;;;;;0.57;0.50;;;;;;;8.21;100.00;98643.78;5054604;28;20202;-73
2024/01/04 02:00:30;;;;;;;0.80;0.60;;;;;;;8.19;100.00;98632.81;5057003;28;20563;-73
2024/01/04 02:02:57;;;;;;;0.67;0.67;;;;;;;8.20;100.00;98646.75;5059572;28;20210;-74
2024/01/04 02:05:24;;;;;;;0.40;0.40;;;;;;;8.15;100.00;98633.88;5058758;28;20229;-73
2024/01/04 02:07:50;;;;;;;0.63;0.63;;;;;;;8.14;100.00;98635.75;5056612;28;20282;-73
2024/01/04 02:10:17;;;;;;;0.30;0.30;;;;;;;8.12;100.00;98640.63;5056660;28;20786;-73
2024/01/04 02:12:44;;;;;;;0.50;0.40;;;;;;;8.11;100.00;98638.34;5053162;28;20199;-73
2024/01/04 02:15:11;;;;;;;1.43;0.60;;;;;;;8.10;100.00;98637.59;5052958;28;20699;-73
2024/01/04 02:17:39;;;;;;;0.50;0.50;;;;;;;8.11;100.00;98646.22;5056471;28;20289;-73
2024/01/04 02:20:07;;;;;;;0.90;0.70;;;;;;;8.11;100.00;98638.34;5056643;28;20711;-73
2024/01/04 02:22:35;;;;;;;0.63;0.57;;;;;;;8.09;100.00;98636.09;5054632;28;20206;-73
2024/01/04 02:25:03;;;;;;;0.70;0.43;;;;;;;8.09;100.00;98636.09;5059318;28;20592;-74
2024/01/04 02:27:30;;;;;;;0.63;0.63;;;;;;;8.09;100.00;98643.22;5049890;28;20211;-74
2024/01/04 02:29:56;;;;;;;0.60;0.50;;;;;;;8.06;100.00;98641.28;5056573;28;20233;-73
2024/01/04 02:32:22;;;;;;;0.83;0.50;;;;;;;8.03;100.00;98639.38;5074399;28;20206;-73
2024/01/04 02:34:49;;;;;;;0.63;0.40;;;;;;;8.01;100.00;98641.56;5055462;28;20226;-74
2024/01/04 02:37:15;;;;;;;2.87;0.70;;;;;;;8.01;100.00;98644.22;5057490;28;20207;-74
2024/01/04 02:39:41;;;;;;;2.23;0.60;;;;;;;8.00;100.00;98645.31;5056630;28;20311;-73
2024/01/04 02:42:09;;;;;;;0.50;0.50;;;;;;;7.97;100.00;98641.53;5055603;28;20201;-73
2024/01/04 02:44:35;;;;;;;0.73;0.53;;;;;;;7.95;100.00;98643.78;5056834;28;20223;-73
2024/01/04 02:47:02;;;;;;;0.60;0.30;;;;;;;7.94;100.00;98641.50;5053069;28;20221;-73
2024/01/04 02:49:28;;;;;;;1.20;0.70;;;;;;;7.95;100.00;98643.00;5051936;28;20627;-73
2024/01/04 02:51:55;;;;;;;3.63;0.60;;;;;;;7.92;100.00;98652.34;5056944;28;20215;-72
2024/01/04 02:54:22;;;;;;;1.03;0.40;;;;;;;7.90;100.00;98646.69;5057507;28;20256;-73
2024/01/04 02:56:48;;;;;;;1.63;0.50;;;;;;;7.90;100.00;98648.56;5057950;28;20194;-73
2024/01/04 02:59:16;;;;;;;0.60;0.60;;;;;;;7.90;100.00;98643.31;5058130;28;20199;-74
2024/01/04 03:01:48;;;;;;;1.37;0.50;;;;;;;7.88;100.00;98643.66;5055302;28;20207;-73
2024/01/04 03:04:14;;;;;;;0.60;0.60;;;;;;;7.90;100.00;98644.06;5054565;28;20627;-73
2024/01/04 03:06:40;;;;;;;2.03;0.80;;;;;;;7.90;100.00;98648.56;5050796;28;20212;-74
2024/01/04 03:09:07;;;;;;;1.33;0.40;;;;;;;7.92;100.00;98633.94;5055817;28;20208;-73
2024/01/04 03:11:33;;;;;;;0.73;0.40;;;;;;;7.93;100.00;98635.47;5058525;28;20228;-73
2024/01/04 03:14:00;;;;;;;2.33;0.93;;;;;;;7.93;100.00;98634.72;5053160;28;20230;-74
2024/01/04 03:16:28;;;;;;;0.50;0.50;;;;;;;7.94;100.00;98630.97;5054417;28;20203;-73
2024/01/04 03:18:55;;;;;;;1.53;0.60;;;;;;;7.94;100.00;98628.34;5056729;28;20551;-73
2024/01/04 03:21:21;;;;;;;1.33;0.80;;;;;;;7.93;100.00;98627.56;5056074;28;20189;-73
2024/01/04 03:23:47;;;;;;;0.70;0.70;;;;;;;7.93;100.00;98642.59;5055658;28;20698;-73
2024/01/04 03:26:14;;;;;;;1.07;0.63;;;;;;;7.92;100.00;98633.22;5057968;28;20685;-73
2024/01/04 03:28:40;;;;;;;0.73;0.60;;;;;;;7.91;100.00;98621.16;5055444;28;20198;-73
2024/01/04 03:31:07;;;;;;;0.50;0.50;;;;;;;7.87;100.00;98617.75;5058311;28;20266;-73
2024/01/04 03:33:34;;;;;;;2.43;0.70;;;;;;;7.86;100.00;98618.84;5058466;28;20216;-73
2024/01/04 03:36:01;;;;;;;0.50;0.43;;;;;;;7.86;100.00;98621.47;5059894;28;20191;-73
2024/01/04 03:38:27;;;;;;;0.70;0.70;;;;;;;7.86;100.00;98624.88;5059700;28;20749;-73
2024/01/04 03:40:54;;;;;;;1.37;0.60;;;;;;;7.85;100.00;98612.84;5058585;28;20270;-74
2024/01/04 03:43:20;;;;;;;0.60;0.60;;;;;;;7.83;100.00;98612.41;5057223;28;20205;-73
2024/01/04 03:45:46;;;;;;;1.53;0.53;;;;;;;7.84;100.00;98613.19;5060901;28;20249;-74
2024/01/04 03:48:13;;;;;;;1.83;0.53;;;;;;;7.83;100.00;98619.56;5057734;28;20198;-73
2024/01/04 03:50:40;;;;;;;0.87;0.40;;;;;;;7.80;100.00;98617.63;5075515;28;20224;-73
2024/01/04 03:53:07;;;;;;;0.57;0.50;;;;;;;7.78;100.00;98625.13;5059468;28;20190;-73
2024/01/04 03:55:33;;;;;;;0.93;0.50;;;;;;;7.74;100.00;98617.19;5057411;28;20227;-73
2024/01/04 03:57:59;;;;;;;0.30;0.30;;;;;;;7.77;100.00;98619.09;5062435;28;20211;-74
2024/01/04 04:00:27;;;;;;;1.53;0.60;;;;;;;7.78;100.00;98612.75;5057156;28;20191;-73
2024/01/04 04:02:54;;;;;;;0.67;0.60;;;;;;;7.80;100.00;98617.63;5060099;28;20208;-73
2024/01/04 04:05:20;;;;;;;1.50;0.50;;;;;;;7.83;100.00;98619.56;5054278;28;20223;-73
2024/01/04 04:07:48;;;;;;;0.93;0.50;;;;;;;7.84;100.00;98624.47;5062101;28;20200;-73
2024/01/04 04:10:14;;;;;;;0.77;0.50;;;;;;;7.86;100.00;98618.84;5060211;28;20198;-73
2024/01/04 04:12:41;;;;;;;0.93;0.50;;;;;;;7.90;100.00;98624.91;5056011;28;20200;-73
2024/01/04 04:15:08;;;;;;;0.60;0.60;;;;;;;7.91;100.00;98623.78;5056344;28;20218;-73
2024/01/04 04:17:35;;;;;;;3.60;0.93;;;;;;;7.92;100.00;98625.31;5058951;28;20201;-73
2024/01/04 04:20:02;;;;;;;0.97;0.60;;;;;;;7.94;100.00;98631.75;5056967;28;20195;-73
2024/01/04 04:22:28;;;;;;;0.63;0.50;;;;;;;7.96;100.00;98628.75;5058510;28;20609;-73
2024/01/04 04:24:56;;;;;;;1.13;0.70;;;;;;;7.97;100.00;98635.53;5059556;28;20224;-73
2024/01/04 04:27:22;;;;;;;0.60;0.60;;;;;;;7.99;100.00;98633.31;5056023;28;20218;-73
2024/01/04 04:29:49;;;;;;;1.83;0.70;;;;;;;8.00;100.00;98630.31;5058991;28;20708;-73
2024/01/04 04:32:15;;;;;;;0.50;0.50;;;;;;;8.01;100.00;98629.22;5059313;28;20213;-73
2024/01/04 04:34:42;;;;;;;0.57;0.57;;;;;;;8.03;100.00;98628.84;5057090;28;20326;-73
2024/01/04 04:37:08;;;;;;;1.63;0.80;;;;;;;8.02;100.00;98629.97;5059087;28;20587;-73
2024/01/04 04:39:34;;;;;;;1.03;0.53;;;;;;;8.05;100.00;98630.03;5055556;28;20564;-73
2024/01/04 04:42:02;;;;;;;1.27;0.60;;;;;;;8.07;100.00;98642.81;5057232;28;20610;-73
2024/01/04 04:44:28;;;;;;;1.50;0.53;;;;;;;8.11;100.00;98643.59;5059865;28;20218;-73
2024/01/04 04:46:54;;;;;;;0.60;0.60;;;;;;;8.12;100.00;98642.50;5052147;28;20207;-72
2024/01/04 04:49:20;;;;;;;3.30;0.60;;;;;;;8.13;100.00;98650.00;5060057;28;20199;-73
2024/01/04 04:51:48;;;;;;;0.50;0.40;;;;;;;8.13;100.00;98646.66;5057590;28;20801;-73
2024/01/04 04:54:15;;;;;;;1.17;0.40;;;;;;;8.15;100.00;98649.66;5058440;28;20272;-73
2024/01/04 04:56:41;;;;;;;0.50;0.50;;;;;;;8.16;100.00;98645.91;5058697;28;20210;-73
2024/01/04 04:59:09;;;;;;;0.77;0.50;;;;;;;8.18;100.00;98647.06;5053252;28;20708;-73
2024/01/04 05:01:36;;;;;;;0.70;0.70;;;;;;;8.15;100.00;98645.19;5057044;28;20553;-73
2024/01/04 05:04:04;;;;;;;1.10;0.70;;;;;;;8.15;100.00;98653.06;5058570;28;20220;-73
2024/01/04 05:06:30;;;;;;;0.83;0.50;;;;;;;8.15;100.00;98653.06;5057480;28;20238;-73
2024/01/04 05:08:56;;;;;;;1.43;0.80;;;;;;;8.16;100.00;98661.69;5056411;28;20306;-73
2024/01/04 05:11:23;;;;;;;2.00;0.70;;;;;;;8.19;100.00;98655.72;5055089;28;20307;-73
2024/01/04 05:13:49;;;;;;;0.60;0.60;;;;;;;8.20;100.00;98660.69;5055874;28;20206;-73
2024/01/04 05:16:19;;;;;;;1.57;0.63;;;;;;;8.21;100.00;98669.31;5053448;28;20573;-73
2024/01/04 05:18:45;;;;;;;0.60;0.60;;;;;;;8.23;100.00;98672.34;5056908;28;20699;-73
2024/01/04 05:21:12;;;;;;;0.57;0.50;;;;;;;8.23;100.00;98667.84;5056290;28;20285;-73
2024/01/04 05:23:38;;;;;;;0.60;0.60;;;;;;;8.26;100.00;98674.25;5057271;28;20191;-73
2024/01/04 05:26:04;;;;;;;1.07;0.50;;;;;;;8.25;100.00;98670.88;5057584;28;20212;-73
2024/01/04 05:28:31;;;;;;;1.77;0.70;;;;;;;8.27;100.00;98670.50;5060721;28;20209;-73
2024/01/04 05:30:57;;;;;;;1.63;0.67;;;;;;;8.26;100.00;98679.50;5056376;28;20224;-73
2024/01/04 05:33:25;;;;;;;0.60;0.60;;;;;;;8.26;100.00;98679.50;5053557;28;20202;-73
2024/01/04 05:35:51;;;;;;;1.07;0.63;;;;;;;8.26;100.00;98684.78;5054436;28;20222;-72
2024/01/04 05:38:17;;;;;;;0.60;0.53;;;;;;;8.24;100.00;98695.63;5054398;28;20210;-73
2024/01/04 05:40:44;;;;;;;0.70;0.60;;;;;;;8.24;100.00;98697.53;5058328;28;20205;-73
2024/01/04 05:43:10;;;;;;;1.07;0.60;;;;;;;8.22;100.00;98695.25;5055739;28;20225;-72
2024/01/04 05:45:37;;;;;;;0.63;0.50;;;;;;;8.23;100.00;98702.00;5054550;28;20211;-73
2024/01/04 05:48:03;;;;;;;0.87;0.67;;;;;;;8.22;100.00;98702.34;5061220;28;20198;-73
2024/01/04 05:50:31;;;;;;;2.23;0.73;;;;;;;8.22;100.00;98705.00;5058245;28;20208;-73
2024/01/04 05:52:58;;;;;;;1.10;0.80;;;;;;;8.19;100.00;98714.31;5055963;28;20726;-73
2024/01/04 05:55:24;;;;;;;1.13;0.60;;;;;;;8.19;100.00;98714.31;5057712;28;20254;-72
2024/01/04 05:57:50;;;;;;;1.40;0.50;;;;;;;8.17;100.00;98716.53;5056119;28;20695;-74
2024/01/04 06:00:17;;;;;;;1.70;0.60;;;;;;;8.17;100.00;98719.19;5059596;28;20198;-73
2024/01/04 06:02:44;;;;;;;0.90;0.60;;;;;;;8.18;100.00;98725.94;5059627;28;20678;-73
2024/01/04 06:05:11;;;;;;;1.20;0.80;;;;;;;8.18;100.00;98733.84;5054398;28;20221;-72
2024/01/04 06:07:38;;;;;;;0.77;0.60;;;;;;;8.18;100.00;98741.72;5057191;28;20197;-73
2024/01/04 06:10:06;;;;;;;0.53;0.53;;;;;;;8.16;100.00;98736.06;5056148;28;20274;-73
2024/01/04 06:12:32;;;;;;;1.53;0.87;;;;;;;8.18;100.00;98733.84;5051538;28;20222;-73
2024/01/04 06:14:59;;;;;;;1.20;0.67;;;;;;;8.16;100.00;98758.97;5048032;28;20228;-73
2024/01/04 06:17:25;;;;;;;0.60;0.60;;;;;;;8.16;100.00;98753.69;5052675;28;20204;-73
2024/01/04 06:19:51;;;;;;;2.10;0.80;;;;;;;8.15;100.00;98758.22;5055283;28;20203;-73
2024/01/04 06:22:18;;;;;;;1.00;0.80;;;;;;;8.15;100.00;98767.97;5052539;28;20196;-73
2024/01/04 06:24:46;;;;;;;0.60;0.60;;;;;;;8.14;100.00;98769.81;5054941;28;20232;-73
2024/01/04 06:27:12;;;;;;;0.80;0.80;;;;;;;8.15;100.00;98773.22;5054964;28;20204;-73
2024/01/04 06:29:39;;;;;;;0.57;0.57;;;;;;;8.15;100.00;98774.00;5060696;28;20198;-73
2024/01/04 06:32:08;;;;;;;0.70;0.60;;;;;;;8.16;100.00;98777.34;5058550;28;20596;-73
2024/01/04 06:34:34;;;;;;;1.43;0.80;;;;;;;8.16;100.00;98790.50;5057138;28;20226;-73
2024/01/04 06:37:00;;;;;;;1.67;0.90;;;;;;;8.16;100.00;98793.91;5055266;28;20193;-73
2024/01/04 06:39:28;;;;;;;2.63;0.97;;;;;;;8.15;100.00;98796.88;5059159;28;20584;-73
2024/01/04 06:41:55;;;;;;;1.50;0.97;;;;;;;8.14;100.00;98803.25;5056174;28;20209;-73
2024/01/04 06:44:22;;;;;;;1.57;0.60;;;;;;;8.13;100.00;98807.00;5056895;28;20778;-73
2024/01/04 06:46:48;;;;;;;2.57;0.60;;;;;;;8.12;100.00;98813.38;5056153;28;20779;-73
2024/01/04 06:49:14;;;;;;;1.17;0.57;;;;;;;8.12;100.00;98805.47;5056545;28;20217;-73
2024/01/04 06:51:41;;;;;;;1.70;0.70;;;;;;;8.10;100.00;98818.97;5054971;28;20232;-73
2024/01/04 06:54:07;;;;;;;1.13;1.03;;;;;;;8.09;100.00;98821.94;5056404;28;20736;-73
2024/01/04 06:56:33;;;;;;;0.60;0.60;;;;;;;8.08;100.00;98828.31;5057821;28;20198;-73
2024/01/04 06:59:03;;;;;;;0.53;0.53;;;;;;;8.07;100.00;98822.28;5057194;28;20692;-73
2024/01/04 07:01:30;;;;;;;0.70;0.70;;;;;;;8.06;100.00;98826.03;5057311;28;20713;-73
2024/01/04 07:03:56;;;;;;;1.43;0.73;;;;;;;8.05;100.00;98826.38;5051874;28;20686;-73
2024/01/04 07:06:22;;;;;;;1.80;0.80;;;;;;;8.01;100.00;98826.31;5062715;28;20666;-73
2024/01/04 07:08:49;;;;;;;2.10;0.60;;;;;;;8.00;100.00;98832.69;5060726;28;20213;-73
2024/01/04 07:11:15;;;;;;;1.23;0.80;;;;;;;7.95;100.00;98826.97;5058954;28;20257;-73
2024/01/04 07:13:42;;;;;;;1.03;0.60;;;;;;;7.94;100.00;98834.09;5057112;28;20206;-73
2024/01/04 07:16:09;;;;;;;0.73;0.73;;;;;;;7.90;100.00;98835.91;5057255;28;20212;-73
2024/01/04 07:18:36;;;;;;;0.50;0.50;;;;;;;7.89;100.00;98837.00;5059324;28;20635;-73
2024/01/04 07:21:03;;;;;;;0.67;0.67;;;;;;;7.89;100.00;98837.00;5063979;28;20208;-73
2024/01/04 07:23:30;;;;;;;0.63;0.63;;;;;;;7.88;100.00;98834.72;5062774;28;20482;-73
2024/01/04 07:25:57;;;;;;;1.23;0.80;;;;;;;7.89;100.00;98846.75;5062319;28;20224;-73
2024/01/04 07:28:23;;;;;;;1.90;0.73;;;;;;;7.88;100.00;98848.59;5062146;28;20221;-73
2024/01/04 07:30:50;;;;;;;0.50;0.50;;;;;;;7.87;100.00;98854.97;5065881;28;20209;-73
2024/01/04 07:33:18;;;;;;;0.93;0.83;;;;;;;7.87;100.00;98849.72;5063003;28;20222;-73
2024/01/04 07:35:44;;;;;;;0.77;0.70;;;;;;;7.89;100.00;98858.03;5068936;28;20310;-73
2024/01/04 07:38:10;;;;;;;1.27;0.53;;;;;;;7.88;100.00;98868.91;5069525;28;20203;-73
2024/01/04 07:40:37;;;;;;;0.63;0.63;;;;;;;7.89;100.00;98860.66;5068345;28;20275;-73
2024/01/04 07:43:04;;;;;;;1.50;1.00;;;;;;;7.88;100.00;98868.91;5067935;28;20208;-73
2024/01/04 07:45:31;;;;;;;0.57;0.53;;;;;;;7.89;100.00;98863.28;5071120;28;20207;-73
2024/01/04 07:47:58;;;;;;;0.70;0.70;;;;;;;7.88;100.00;98859.13;5072397;28;20208;-73
2024/01/04 07:50:26;;;;;;;1.20;0.70;;;;;;;7.87;100.00;98862.88;5075444;28;20223;-73
2024/01/04 07:52:52;;;;;;;0.60;0.60;;;;;;;7.89;100.00;98876.44;5075627;28;20278;-72
2024/01/04 07:55:19;;;;;;;0.47;0.47;;;;;;;7.90;100.00;98877.19;5078140;28;20227;-72
2024/01/04 07:57:46;;;;;;;0.87;0.87;;;;;;;7.91;100.00;98870.81;5077608;28;20194;-73
2024/01/04 08:00:13;;;;;;;0.60;0.60;;;;;;;7.90;100.00;98872.69;5070793;28;20202;-73
2024/01/04 08:02:40;;;;;;;0.80;0.80;;;;;;;7.93;100.00;98876.50;5075098;28;20209;-72
2024/01/04 08:05:07;;;;;;;0.60;0.60;;;;;;;7.93;100.00;98882.50;5073955;28;20216;-72
2024/01/04 08:07:35;;;;;;;0.63;0.63;;;;;;;7.94;100.00;98873.53;5073442;28;20274;-72
2024/01/04 08:10:03;;;;;;;0.60;0.57;;;;;;;7.97;100.00;98872.06;5062937;28;20208;-72
2024/01/04 08:12:29;;;;;;;0.80;0.67;;;;;;;7.98;100.00;98869.06;5058690;28;20227;-73
2024/01/04 08:14:56;;;;;;;0.63;0.63;;;;;;;8.00;100.00;98866.09;5060010;28;20229;-73
2024/01/04 08:17:23;;;;;;;0.50;0.50;;;;;;;8.01;100.00;98868.38;5062731;28;20277;-73
2024/01/04 08:19:49;;;;;;;1.80;0.70;;;;;;;8.03;100.00;98870.66;5063700;28;20236;-72
2024/01/04 08:22:15;;;;;;;0.50;0.50;;;;;;;8.05;100.00;98865.81;5061665;28;20191;-72
2024/01/04 08:24:43;;;;;;;0.70;0.70;;;;;;;8.05;100.00;98869.22;5061068;28;20236;-72
2024/01/04 08:27:09;;;;;;;1.03;0.73;;;;;;;8.06;100.00;98862.84;5060133;28;20186;-73
2024/01/04 08:29:36;;;;;;;1.07;0.60;;;;;;;8.08;100.00;98870.38;5061065;28;20581;-73
2024/01/04 08:32:02;;;;;;;0.80;0.70;;;;;;;8.10;100.00;98868.91;5052319;28;20232;-73
2024/01/04 08:34:29;;;;;;;0.67;0.67;;;;;;;8.13;100.00;98870.84;5056683;28;20234;-72
2024/01/04 08:36:55;;;;;;;0.80;0.80;;;;;;;8.17;100.00;98876.91;5058753;28;20509;-72
2024/01/04 08:39:22;;;;;;;1.03;0.60;;;;;;;8.21;100.00;98877.78;5061218;28;20250;-73
2024/01/04 08:41:50;;;;;;;0.70;0.70;;;;;;;8.23;100.00;98878.16;5059191;28;20201;-72
2024/01/04 08:44:16;;;;;;;0.73;0.73;;;;;;;8.25;100.00;98877.81;5060724;28;20231;-72
2024/01/04 08:46:42;;;;;;;1.57;1.30;;;;;;;8.26;100.00;98874.09;5058341;28;20202;-72
2024/01/04 08:49:09;;;;;;;1.23;0.63;;;;;;;8.25;100.00;98883.09;5060552;28;20201;-71
2024/01/04 08:51:35;;;;;;;3.70;2.13;;;;;;;8.25;100.00;98889.13;5058070;28;20200;-72
2024/01/04 08:54:01;;;;;;;1.83;1.60;;;;;;;8.23;100.00;98885.31;5059354;28;20293;-73
2024/01/04 08:56:28;;;;;;;9.67;5.30;;;;;;;8.21;100.00;98887.53;5061060;28;20199;-73
2024/01/04 08:58:55;;;;;;;2.20;0.80;;;;;;;8.15;100.00;98888.88;5058049;28;20213;-72
2024/01/04 09:01:22;;;;;;;3.00;1.60;;;;;;;8.13;100.00;98897.13;5060575;28;20749;-72
2024/01/04 09:03:49;;;;;;;2.00;1.90;;;;;;;8.11;100.00;98894.09;5058725;28;20202;-72
2024/01/04 09:06:15;;;;;;;1.07;1.07;;;;;;;8.04;100.00;98908.97;5059063;28;20210;-72
2024/01/04 09:08:41;;;;;;;1.37;1.00;;;;;;;7.96;100.00;98934.38;5059624;28;20206;-73
2024/01/04 09:11:08;;;;;;;1.63;0.73;;;;;;;7.84;100.00;98933.75;5058032;28;20206;-72
2024/01/04 09:13:34;;;;;;;0.77;0.77;;;;;;;7.72;100.00;98921.50;5058904;28;20222;-72
2024/01/04 09:16:03;;;;;;;1.57;1.00;;;;;;;7.62;100.00;98932.56;5061511;28;20207;-73
2024/01/04 09:18:29;;;;;;;1.33;0.90;;;;;;;7.52;100.00;98935.00;5060041;28;20272;-73
2024/01/04 09:20:55;;;;;;;1.10;0.67;;;;;;;7.41;100.00;98941.91;5063086;28;20196;-73
2024/01/04 09:23:22;;;;;;;0.80;0.80;;;;;;;7.37;100.00;98957.59;5062499;28;20187;-72
2024/01/04 09:25:48;;;;;;;1.50;0.83;;;;;;;7.32;100.00;98960.47;5056530;28;20226;-73
2024/01/04 09:28:14;;;;;;;0.83;0.80;;;;;;;7.25;100.00;98952.41;5058899;28;20219;-73
2024/01/04 09:30:41;;;;;;;1.13;1.00;;;;;;;7.21;100.00;98967.34;5055103;28;20199;-73
2024/01/04 09:33:08;;;;;;;0.60;0.60;;;;;;;7.16;100.00;98972.09;5057602;28;20217;-72
2024/01/04 09:35:35;;;;;;;0.93;0.93;;;;;;;7.14;100.00;98972.44;5064073;28;20211;-72
2024/01/04 09:38:01;;;;;;;1.20;1.13;;;;;;;7.13;100.00;98972.75;5061070;28;20196;-72
2024/01/04 09:40:28;;;;;;;0.70;0.70;;;;;;;7.07;100.00;98972.28;5062656;28;20784;-73
2024/01/04 09:42:56;;;;;;;0.73;0.70;;;;;;;7.02;100.00;98998.00;5060579;28;20202;-72
2024/01/04 09:45:23;;;;;;;0.70;0.70;;;;;;;6.99;100.00;99006.56;5065386;28;20722;-72
2024/01/04 09:47:51;;;;;;;0.70;0.60;;;;;;;6.93;100.00;98994.78;5058931;28;20670;-73
2024/01/04 09:50:19;;;;;;;0.60;0.60;;;;;;;6.89;100.00;98997.31;5056743;28;20203;-72
2024/01/04 09:52:46;;;;;;;0.50;0.50;;;;;;;6.84;100.00;99015.19;5060782;28;20218;-72
2024/01/04 09:55:13;;;;;;;0.40;0.40;;;;;;;6.77;100.00;99012.38;5061475;28;20226;-72
2024/01/04 09:57:39;;;;;;;0.43;0.40;;;;;;;6.71;100.00;99022.38;5061985;28;20199;-73
2024/01/04 10:00:08;;;;;;;0.40;0.40;;;;;;;6.63;100.00;99017.31;5060568;28;20560;-72
2024/01/04 10:02:41;;;;;;;0.40;0.40;;;;;;;6.56;100.00;99024.97;5060766;28;20195;-72
2024/01/04 10:05:12;;;;;;;0.60;0.60;;;;;;;6.49;100.00;99036.06;5063482;28;20652;-73
2024/01/04 10:07:44;;;;;;;0.50;0.50;;;;;;;6.44;100.00;99038.16;5057123;28;20200;-72
2024/01/04 10:10:15;;;;;;;0.20;0.20;;;;;;;6.37;100.00;99045.84;5059462;28;20573;-72
2024/01/04 10:12:42;;;;;;;0.77;0.67;;;;;;;6.32;100.00;99049.44;5080133;28;20214;-73
2024/01/04 10:15:11;;;;;;;0.40;0.40;;;;;;;6.29;100.00;99049.34;5055363;28;20219;-72
2024/01/04 10:17:38;;;;;;;0.50;0.50;;;;;;;6.27;100.00;99057.53;5060271;28;20588;-73
2024/01/04 10:20:05;;;;;;;0.50;0.50;;;;;;;6.22;100.00;99060.41;5058527;28;20550;-73
2024/01/04 10:22:32;;;;;;;0.43;0.40;;;;;;;6.18;100.00;99056.94;5058685;28;20766;-72
2024/01/04 10:25:08;;;;;;;1.20;0.70;;;;;;;6.17;100.00;99057.25;5062183;28;20223;-73
2024/01/04 10:27:34;;;;;;;1.20;0.60;;;;;;;6.13;100.00;99059.78;5058582;28;20220;-72
2024/01/04 10:30:04;;;;;;;0.60;0.60;;;;;;;6.12;100.00;99055.63;5064733;28;20191;-72
2024/01/04 10:32:30;;;;;;;1.50;1.10;;;;;;;6.10;100.00;99076.16;5078743;28;20685;-73
2024/01/04 10:35:03;;;;;;;1.30;1.17;;;;;;;6.03;100.00;99062.88;5058994;28;20689;-72
2024/01/04 10:37:30;;;;;;;2.13;1.63;;;;;;;6.00;100.00;99083.75;5059241;28;20203;-72
2024/01/04 10:39:58;;;;;;;2.40;1.50;;;;;;;5.93;100.00;99086.91;5056287;28;20218;-73
2024/01/04 10:42:25;;;;;;;1.87;1.17;;;;;;;5.88;100.00;99074.03;5065170;28;20233;-72
2024/01/04 10:44:52;;;;;;;5.50;2.30;;;;;;;5.81;100.00;99091.41;5063113;28;20246;-72
2024/01/04 10:47:18;;;;;;;5.73;2.40;;;;;;;5.81;100.00;99086.16;5062245;28;20195;-72
2024/01/04 10:49:47;;;;;;;3.30;1.73;;;;;;;5.76;100.00;99086.34;5068550;28;20692;-72
2024/01/04 10:52:15;;;;;;;2.27;2.00;;;;;;;5.73;100.00;99079.91;5063455;28;20275;-73
2024/01/04 10:54:42;;;;;;;3.07;1.70;;;;;;;5.74;100.00;99083.28;5063258;28;20221;-72
2024/01/04 10:57:10;;;;;;;1.90;1.73;;;;;;;5.74;100.00;99091.91;5063689;28;20222;-72
2024/01/04 10:59:39;;;;;;;12.93;3.60;;;;;;;5.74;100.00;99096.38;5070765;28;20222;-73
2024/01/04 11:02:06;;;;;;;4.37;1.90;;;;;;;5.73;100.00;99089.63;5060733;28;20653;-72
2024/01/04 11:04:34;;;;;;;30.53;8.53;;;;;;;5.71;100.00;99086.56;5064148;28;20218;-73
2024/01/04 11:07:01;;;;;;;7.77;2.93;;;;;;;5.72;100.00;99101.97;5065104;28;20592;-72
2024/01/04 11:09:27;;;;;;;11.00;4.60;;;;;;;5.74;100.00;99096.38;5065978;28;20203;-73
2024/01/04 11:11:56;;;;;;;0.80;0.80;;;;;;;5.75;100.00;99096.06;5064953;28;20202;-72
2024/01/04 11:14:23;;;;;;;1.57;1.27;;;;;;;5.74;100.00;99091.13;5065973;28;20214;-72
2024/01/04 11:17:15;;;;;;;0.60;0.60;;;;;;;5.75;100.00;99106.53;5063902;28;20210;-73
2024/01/04 11:19:59;;;;;;;0.90;0.80;;;;;;;5.74;100.00;99112.09;5064412;28;20647;-73
2024/01/04 11:22:42;;;;;;;0.70;0.70;;;;;;;5.73;100.00;99105.34;5065375;28;20191;-72
2024/01/04 11:25:19;;;;;;;1.37;1.00;;;;;;;5.72;100.00;99094.09;5062437;28;20217;-72
2024/01/04 11:27:46;;;;;;;1.37;0.63;;;;;;;5.74;100.00;99106.84;5061526;28;20213;-72
2024/01/04 11:30:14;;;;;;;0.70;0.70;;;;;;;5.73;100.00;99111.34;5059385;28;20195;-72
2024/01/04 11:32:44;;;;;;;0.73;0.70;;;;;;;5.74;100.00;99117.31;5062456;28;20209;-72